Time;durP1;ratioP1;P1;durP2;ratioP2;P2;SDS_P1;SDS_P2;PMS_P1;PMS_P2;Temp;Humidity;BMP_temperature;BMP_pressure;BME280_temperature;BME280_humidity;BME280_pressure;Samples;Min_cycle;Max_cycle;Signal;HPM_P1;HPM_P2
2022/12/31 00:00:21;;;;;;;12.48;9.75;;;;;;;20.15;53.33;102096.16;5015026;28;20488;-60
2022/12/31 00:02:48;;;;;;;13.38;10.07;;;;;;;20.13;53.32;102098.94;5015130;28;20057;-60
2022/12/31 00:05:16;;;;;;;14.00;8.98;;;;;;;20.13;53.31;102104.31;5015029;28;20046;-60
2022/12/31 00:07:43;;;;;;;13.13;9.52;;;;;;;20.13;53.26;102111.53;5015074;28;20053;-60
2022/12/31 00:10:11;;;;;;;16.23;9.35;;;;;;;20.12;53.26;102109.81;5013860;28;20046;-60
2022/12/31 00:12:38;;;;;;;12.75;9.52;;;;;;;20.11;53.29;102108.94;5014704;28;20050;-61
2022/12/31 00:15:06;;;;;;;15.80;10.60;;;;;;;20.10;53.31;102099.16;5014873;28;20516;-61
2022/12/31 00:17:33;;;;;;;13.98;10.25;;;;;;;20.11;53.31;102091.97;5015427;28;20061;-61
2022/12/31 00:20:01;;;;;;;14.23;9.70;;;;;;;20.09;53.32;102108.19;5014918;28;20049;-61
2022/12/31 00:22:28;;;;;;;15.07;11.25;;;;;;;20.09;53.27;102099.25;5013765;28;20061;-60
2022/12/31 00:24:56;;;;;;;14.88;10.60;;;;;;;20.10;53.30;102106.38;5014704;28;20510;-61
2022/12/31 00:27:23;;;;;;;14.95;11.15;;;;;;;20.09;53.30;102096.56;5014589;28;20050;-61
2022/12/31 00:29:50;;;;;;;13.52;10.27;;;;;;;20.08;53.25;102095.72;5014789;28;20049;-61
2022/12/31 00:32:18;;;;;;;13.18;10.02;;;;;;;20.09;53.18;102085.81;5014951;28;20061;-61
2022/12/31 00:34:45;;;;;;;17.13;11.05;;;;;;;20.07;52.87;102080.56;5014724;28;20057;-61
2022/12/31 00:37:13;;;;;;;15.18;11.07;;;;;;;20.07;53.09;102085.94;5014555;28;20377;-61
2022/12/31 00:39:40;;;;;;;13.80;10.73;;;;;;;20.07;53.23;102088.63;5014144;28;20054;-61
2022/12/31 00:42:07;;;;;;;16.52;10.95;;;;;;;20.06;53.00;102103.03;5014683;28;20046;-61
2022/12/31 00:44:34;;;;;;;13.23;10.88;;;;;;;20.06;53.08;102102.19;5014523;28;20515;-61
2022/12/31 00:47:02;;;;;;;15.60;11.52;;;;;;;20.05;52.94;102106.66;5014262;28;20061;-61
2022/12/31 00:49:29;;;;;;;14.43;10.98;;;;;;;20.06;52.82;102104.88;5014156;28;20034;-61
2022/12/31 00:51:56;;;;;;;15.13;11.88;;;;;;;20.06;52.91;102102.19;5014179;28;20046;-61
2022/12/31 00:54:24;;;;;;;16.23;12.45;;;;;;;20.06;52.86;102115.63;5013961;28;20068;-61
2022/12/31 00:56:54;;;;;;;15.25;12.02;;;;;;;20.07;52.93;102111.97;5014390;28;20538;-61
2022/12/31 00:59:22;;;;;;;14.38;11.30;;;;;;;20.05;52.84;102117.41;5014254;28;20057;-62
2022/12/31 01:01:49;;;;;;;16.23;11.70;;;;;;;20.06;52.82;102113.78;5014234;28;20072;-62
2022/12/31 01:04:19;;;;;;;15.48;11.30;;;;;;;20.06;52.78;102115.63;5014137;28;20400;-62
2022/12/31 01:06:47;;;;;;;15.05;11.32;;;;;;;20.05;52.96;102112.03;5013427;28;20069;-62
2022/12/31 01:09:15;;;;;;;17.10;11.88;;;;;;;20.05;52.68;102120.09;5013859;28;20042;-62
2022/12/31 01:11:43;;;;;;;16.05;11.88;;;;;;;20.06;52.71;102121.84;5014064;28;20058;-62
2022/12/31 01:14:14;;;;;;;18.05;12.15;;;;;;;20.06;52.96;102121.00;5014156;28;20050;-62
2022/12/31 01:16:50;;;;;;;16.42;11.82;;;;;;;20.05;52.77;102117.41;5013034;28;20053;-62
2022/12/31 01:19:26;;;;;;;17.13;12.40;;;;;;;20.05;52.82;102130.00;5014030;28;20053;-62
2022/12/31 01:21:55;;;;;;;16.05;12.43;;;;;;;20.05;52.63;102138.94;5013453;28;20046;-62
2022/12/31 01:24:22;;;;;;;17.30;12.70;;;;;;;20.03;52.71;102134.63;5012887;28;20058;-61
2022/12/31 01:26:50;;;;;;;16.90;12.90;;;;;;;20.04;52.83;102137.22;5013903;28;20050;-62
2022/12/31 01:29:17;;;;;;;16.27;12.27;;;;;;;20.04;52.78;102137.22;5013897;28;20057;-62
2022/12/31 01:31:45;;;;;;;17.10;12.60;;;;;;;20.05;52.77;102138.06;5013891;28;20049;-62
2022/12/31 01:34:12;;;;;;;16.08;12.32;;;;;;;20.04;52.67;102153.34;5013812;28;20050;-62
2022/12/31 01:36:39;;;;;;;17.40;12.73;;;;;;;20.05;52.74;102154.19;5013755;28;20476;-62
2022/12/31 01:39:08;;;;;;;16.67;13.02;;;;;;;20.04;52.78;102156.03;5013723;28;20053;-62
2022/12/31 01:41:41;;;;;;;19.35;13.27;;;;;;;20.03;52.82;102148.09;5013801;28;20465;-59
2022/12/31 01:44:11;;;;;;;18.88;13.68;;;;;;;20.03;52.79;102157.00;5013767;28;20070;-59
2022/12/31 01:46:45;;;;;;;15.50;12.30;;;;;;;20.03;52.93;102161.53;5012570;28;20388;-59
2022/12/31 01:49:41;;;;;;;17.88;12.15;;;;;;;20.03;52.92;102175.81;5013687;28;20046;-59
2022/12/31 01:52:14;;;;;;;16.95;13.60;;;;;;;20.02;52.83;102171.41;5013591;28;20057;-59
2022/12/31 01:54:45;;;;;;;15.35;11.52;;;;;;;20.02;52.92;102168.72;5013699;28;20050;-60
2022/12/31 01:57:14;;;;;;;17.38;12.80;;;;;;;20.02;52.94;102174.09;5013624;28;20054;-59
2022/12/31 01:59:44;;;;;;;17.42;12.35;;;;;;;20.02;53.09;102182.16;5013588;28;20042;-59
2022/12/31 02:02:13;;;;;;;19.30;13.27;;;;;;;20.02;53.04;102192.06;5013545;28;20046;-60
2022/12/31 02:04:40;;;;;;;18.77;13.90;;;;;;;20.02;53.06;102186.69;5013571;28;20060;-60
2022/12/31 02:07:10;;;;;;;18.02;13.70;;;;;;;20.01;53.08;102183.09;5013598;28;20054;-59
2022/12/31 02:09:39;;;;;;;20.42;13.77;;;;;;;20.01;53.06;102183.09;5013381;28;20045;-59
2022/12/31 02:12:08;;;;;;;21.35;14.50;;;;;;;20.00;52.86;102184.09;5013563;28;20052;-59
2022/12/31 02:14:41;;;;;;;17.40;13.25;;;;;;;19.99;52.87;102187.75;5013511;28;20487;-59
2022/12/31 02:17:11;;;;;;;18.27;13.73;;;;;;;19.99;52.90;102188.59;5013476;28;20050;-59
2022/12/31 02:19:56;;;;;;;19.15;13.68;;;;;;;19.99;52.98;102185.06;5013475;28;20049;-60
2022/12/31 02:23:04;;;;;;;18.98;14.70;;;;;;;19.99;53.01;102187.75;5013339;28;20376;-60
2022/12/31 02:25:49;;;;;;;18.83;14.32;;;;;;;19.98;52.83;102178.81;5013387;28;20053;-60
2022/12/31 02:28:26;;;;;;;19.63;14.40;;;;;;;19.98;53.00;102184.19;5013313;28;20056;-59
2022/12/31 02:31:00;;;;;;;21.58;14.77;;;;;;;19.98;52.81;102183.34;5012308;28;20049;-60
2022/12/31 02:33:48;;;;;;;22.27;15.48;;;;;;;19.99;53.10;102187.75;5015070;28;20052;-59
2022/12/31 02:36:25;;;;;;;20.30;15.00;;;;;;;19.98;52.82;102191.41;5016902;28;20046;-60
2022/12/31 02:38:53;;;;;;;19.88;14.07;;;;;;;19.98;52.91;102196.78;5017035;28;20045;-59
2022/12/31 02:44:37;;;;;;;22.08;15.65;;;;;;;19.98;52.88;102194.09;5016876;28;20472;-59
2022/12/31 02:47:07;;;;;;;20.15;14.80;;;;;;;19.98;52.82;102180.66;5011558;28;20057;-59
2022/12/31 02:49:43;;;;;;;18.60;14.20;;;;;;;19.98;52.82;102188.72;5016207;28;20050;-59
2022/12/31 02:52:19;;;;;;;22.02;14.95;;;;;;;19.98;52.87;102180.66;5016733;28;20053;-60
2022/12/31 02:54:53;;;;;;;20.77;15.23;;;;;;;19.98;53.03;102177.97;5016706;28;20041;-59
2022/12/31 02:57:49;;;;;;;20.20;14.93;;;;;;;19.96;52.99;102172.66;5016721;28;20057;-60
2022/12/31 03:03:06;;;;;;;18.63;14.70;;;;;;;19.97;53.09;102179.78;5016235;28;20050;-59
2022/12/31 03:05:39;;;;;;;19.00;13.80;;;;;;;19.97;53.32;102181.59;5016030;28;20046;-59
2022/12/31 03:08:06;;;;;;;18.52;14.18;;;;;;;19.97;52.94;102181.59;5016107;28;20042;-60
2022/12/31 03:10:35;;;;;;;21.63;14.70;;;;;;;19.96;52.88;102177.19;5016108;28;20053;-60
2022/12/31 03:13:02;;;;;;;19.92;14.23;;;;;;;19.95;53.17;102176.34;5016262;28;20046;-60
2022/12/31 03:15:32;;;;;;;19.40;14.02;;;;;;;19.96;53.14;102185.25;5016371;28;20049;-60
2022/12/31 03:18:05;;;;;;;21.48;14.95;;;;;;;19.96;53.22;102190.63;5016237;28;20049;-59
2022/12/31 03:23:49;;;;;;;19.70;14.40;;;;;;;19.97;53.23;102186.97;5016094;28;20487;-60
2022/12/31 03:26:18;;;;;;;18.90;13.88;;;;;;;19.96;53.55;102185.25;5014212;28;20065;-59
2022/12/31 03:28:46;;;;;;;20.38;15.75;;;;;;;19.95;53.38;102189.78;5015873;28;20072;-58
2022/12/31 03:31:15;;;;;;;19.08;14.75;;;;;;;19.95;53.26;102191.59;5015891;28;20054;-59
2022/12/31 03:33:42;;;;;;;19.98;14.35;;;;;;;19.95;53.40;102195.16;5015796;28;20053;-59
2022/12/31 03:36:13;;;;;;;19.80;13.82;;;;;;;19.95;53.26;102191.59;5015930;28;20068;-59
2022/12/31 03:38:40;;;;;;;21.60;14.63;;;;;;;19.94;53.47;102188.06;5016318;28;20061;-58
2022/12/31 03:41:10;;;;;;;17.67;14.00;;;;;;;19.95;53.47;102202.34;5015567;28;20065;-58
2022/12/31 03:43:37;;;;;;;17.88;13.98;;;;;;;19.94;53.55;102206.00;5015348;28;20049;-58
2022/12/31 03:46:05;;;;;;;17.73;13.90;;;;;;;19.95;53.58;102202.34;5014613;28;20061;-58
2022/12/31 03:48:32;;;;;;;19.08;15.13;;;;;;;19.93;53.66;102191.72;5015499;28;20507;-58
2022/12/31 03:50:59;;;;;;;19.38;15.25;;;;;;;19.94;53.47;102193.44;5015503;28;20053;-58
2022/12/31 03:53:27;;;;;;;18.15;14.00;;;;;;;19.94;53.85;102192.56;5015507;28;20046;-58
2022/12/31 03:55:54;;;;;;;19.30;14.32;;;;;;;19.94;53.63;102192.56;5015396;28;20050;-58
2022/12/31 03:58:22;;;;;;;18.27;14.65;;;;;;;19.93;53.38;102188.13;5015413;28;20057;-58
2022/12/31 04:00:49;;;;;;;17.90;13.98;;;;;;;19.92;53.72;102184.59;5015369;28;20049;-58
2022/12/31 04:03:17;;;;;;;17.35;14.02;;;;;;;19.92;53.90;102192.66;5015229;28;20083;-58
2022/12/31 04:05:51;;;;;;;18.95;14.20;;;;;;;19.93;53.70;102196.22;5014152;28;20050;-59
2022/12/31 04:08:18;;;;;;;17.60;13.43;;;;;;;19.92;53.71;102186.44;5015197;28;20080;-58
2022/12/31 04:10:46;;;;;;;17.42;14.00;;;;;;;19.92;53.45;102197.19;5015130;28;20046;-58
2022/12/31 04:13:13;;;;;;;17.30;13.75;;;;;;;19.93;53.78;102190.81;5015161;28;20515;-58
2022/12/31 04:15:41;;;;;;;16.48;13.00;;;;;;;19.93;53.96;102193.50;5015129;28;20056;-60
2022/12/31 04:18:08;;;;;;;18.15;13.82;;;;;;;19.92;53.85;102195.34;5015155;28;20065;-58
2022/12/31 04:20:35;;;;;;;16.67;13.98;;;;;;;19.92;53.55;102179.22;5014942;28;20046;-58
2022/12/31 04:23:03;;;;;;;18.48;13.75;;;;;;;19.92;53.69;102181.06;5015162;28;20061;-58
2022/12/31 04:25:30;;;;;;;18.23;14.18;;;;;;;19.92;53.96;102181.06;5014929;28;20053;-58
2022/12/31 04:27:58;;;;;;;17.23;13.85;;;;;;;19.92;53.73;102186.44;5014896;28;20046;-58
2022/12/31 04:30:25;;;;;;;17.20;13.50;;;;;;;19.91;54.08;102188.25;5014763;28;20373;-58
2022/12/31 04:32:52;;;;;;;17.20;12.98;;;;;;;19.91;53.88;102192.78;5014627;28;20048;-58
2022/12/31 04:35:19;;;;;;;17.80;12.75;;;;;;;19.91;54.05;102200.84;5014650;28;20057;-58
2022/12/31 04:37:47;;;;;;;17.15;13.55;;;;;;;19.91;53.95;102198.16;5014938;28;20495;-58
2022/12/31 04:40:14;;;;;;;15.70;12.95;;;;;;;19.90;53.85;102205.34;5014560;28;20392;-58
2022/12/31 04:42:41;;;;;;;14.65;12.45;;;;;;;19.90;54.02;102213.41;5014613;28;20054;-58
2022/12/31 04:45:09;;;;;;;15.23;11.85;;;;;;;19.91;54.22;102208.91;5014314;28;20069;-58
2022/12/31 04:47:36;;;;;;;16.23;12.98;;;;;;;19.90;54.01;102205.34;5014463;28;20072;-58
2022/12/31 04:50:04;;;;;;;15.35;11.93;;;;;;;19.90;54.22;102221.47;5014435;28;20042;-58
2022/12/31 04:52:31;;;;;;;16.08;11.70;;;;;;;19.90;54.13;102216.09;5014393;28;20423;-58
2022/12/31 04:55:08;;;;;;;15.23;12.15;;;;;;;19.91;54.26;102222.34;5013892;28;20050;-60
2022/12/31 04:57:35;;;;;;;17.80;13.15;;;;;;;19.89;54.06;102214.38;5014193;28;20049;-60
2022/12/31 05:00:03;;;;;;;13.25;11.15;;;;;;;19.90;54.01;102217.94;5014197;28;20050;-61
2022/12/31 05:02:30;;;;;;;15.20;12.50;;;;;;;19.90;54.24;102226.00;5014234;28;20041;-61
2022/12/31 05:04:58;;;;;;;15.40;12.77;;;;;;;19.90;54.38;102242.97;5014164;28;20046;-61
2022/12/31 05:07:25;;;;;;;17.67;12.02;;;;;;;19.90;54.33;102236.75;5014227;28;20057;-61
2022/12/31 05:09:52;;;;;;;14.65;11.48;;;;;;;19.88;54.13;102244.91;5013972;28;20042;-60
2022/12/31 05:12:20;;;;;;;16.58;12.38;;;;;;;19.89;54.09;102253.81;5012828;28;20057;-60
2022/12/31 05:14:47;;;;;;;16.17;12.25;;;;;;;19.89;54.17;102257.38;5013899;28;20045;-60
2022/12/31 05:17:14;;;;;;;13.88;11.02;;;;;;;19.89;54.15;102256.50;5013943;28;20492;-60
2022/12/31 05:19:41;;;;;;;15.65;12.88;;;;;;;19.88;54.31;102260.16;5013869;28;20050;-60
2022/12/31 05:24:59;;;;;;;13.45;11.52;;;;;;;19.88;54.25;102269.09;5013602;28;20053;-60
2022/12/31 05:27:29;;;;;;;14.95;12.23;;;;;;;19.88;54.29;102270.91;5013473;28;20050;-60
2022/12/31 05:29:58;;;;;;;14.88;11.30;;;;;;;19.88;54.31;102273.59;5013289;28;20042;-60
2022/12/31 05:32:26;;;;;;;12.90;10.82;;;;;;;19.88;54.28;102281.66;5013515;28;20050;-60
2022/12/31 05:34:53;;;;;;;14.57;11.07;;;;;;;19.87;54.17;102286.19;5013561;28;20049;-60
2022/12/31 05:37:20;;;;;;;15.23;11.80;;;;;;;19.87;54.33;102293.38;5013765;28;20496;-60
2022/12/31 05:39:48;;;;;;;12.25;10.45;;;;;;;19.87;54.62;102288.00;5013437;28;20050;-61
2022/12/31 05:42:15;;;;;;;14.48;11.05;;;;;;;19.85;54.35;102295.28;5013706;28;20050;-61
2022/12/31 05:44:42;;;;;;;13.43;10.60;;;;;;;19.86;54.56;102316.72;5013395;28;20045;-60
2022/12/31 05:47:10;;;;;;;13.23;11.07;;;;;;;19.85;54.53;102315.00;5014180;28;20057;-60
2022/12/31 05:49:37;;;;;;;12.43;10.15;;;;;;;19.85;54.23;102312.31;5013515;28;20053;-60
2022/12/31 05:52:05;;;;;;;14.50;11.27;;;;;;;19.86;54.33;102316.72;5013629;28;20485;-60
2022/12/31 05:54:32;;;;;;;15.07;10.80;;;;;;;19.86;54.37;102315.84;5013743;28;20050;-60
2022/12/31 05:57:00;;;;;;;12.95;11.27;;;;;;;19.85;54.09;102319.47;5013414;28;20049;-60
2022/12/31 05:59:27;;;;;;;13.75;10.57;;;;;;;19.86;54.18;102326.59;5013383;28;20053;-60
2022/12/31 06:01:54;;;;;;;12.55;10.25;;;;;;;19.85;54.38;102324.84;5013438;28;20042;-61
2022/12/31 06:04:22;;;;;;;15.30;11.15;;;;;;;19.85;54.43;102324.84;5013619;28;20496;-61
2022/12/31 06:06:50;;;;;;;14.00;10.43;;;;;;;19.85;54.49;102324.84;5014389;28;20046;-58
2022/12/31 06:09:18;;;;;;;11.30;9.80;;;;;;;19.84;54.50;102328.50;5017525;28;20057;-58
2022/12/31 06:11:46;;;;;;;13.90;11.45;;;;;;;19.84;54.35;102334.75;5017307;28;20510;-57
2022/12/31 06:14:13;;;;;;;12.80;10.43;;;;;;;19.85;54.60;102341.88;5017252;28;20050;-58
2022/12/31 06:16:42;;;;;;;13.27;10.02;;;;;;;19.84;54.23;102336.56;5017365;28;20045;-58
2022/12/31 06:19:09;;;;;;;12.40;9.68;;;;;;;19.85;54.44;102349.03;5017382;28;20050;-58
2022/12/31 06:21:36;;;;;;;12.75;10.40;;;;;;;19.84;54.22;102347.31;5017132;28;20046;-58
2022/12/31 06:24:04;;;;;;;12.43;8.95;;;;;;;19.84;54.42;102345.50;5017255;28;20054;-58
2022/12/31 06:26:31;;;;;;;13.15;10.30;;;;;;;19.84;54.33;102350.88;5017064;28;20049;-58
2022/12/31 06:28:58;;;;;;;12.07;9.52;;;;;;;19.84;54.22;102364.31;5017051;28;20038;-58
2022/12/31 06:31:26;;;;;;;11.27;9.23;;;;;;;19.85;54.54;102362.47;5016947;28;20050;-58
2022/12/31 06:33:53;;;;;;;13.20;9.73;;;;;;;19.84;54.38;102363.44;5016946;28;20049;-58
2022/12/31 06:36:21;;;;;;;10.90;9.20;;;;;;;19.84;54.54;102372.38;5016918;28;20050;-58
2022/12/31 06:38:49;;;;;;;10.45;8.98;;;;;;;19.84;54.57;102377.75;5016994;28;20361;-58
2022/12/31 06:41:17;;;;;;;11.95;10.10;;;;;;;19.85;54.54;102381.28;5016656;28;20439;-58
2022/12/31 06:43:44;;;;;;;11.35;9.00;;;;;;;19.84;54.55;102383.13;5016819;28;20049;-58
2022/12/31 06:46:14;;;;;;;10.02;8.73;;;;;;;19.85;54.58;102389.34;5016743;28;20057;-58
2022/12/31 06:48:43;;;;;;;11.25;9.10;;;;;;;19.85;54.78;102397.41;5016683;28;20073;-58
2022/12/31 06:51:17;;;;;;;11.77;8.93;;;;;;;19.84;54.66;102384.94;5016649;28;20045;-57
2022/12/31 06:53:44;;;;;;;;;;;;;;;19.83;54.79;102392.16;5017661;28;20503;-58
2022/12/31 06:56:20;;;;;;;12.35;9.35;;;;;;;19.84;54.75;102384.94;5016417;28;20307;-58
2022/12/31 06:58:53;;;;;;;10.90;8.32;;;;;;;19.84;54.74;102387.63;5016601;28;20515;-58
2022/12/31 07:01:32;;;;;;;15.75;9.30;;;;;;;19.84;54.58;102387.63;5016581;28;20042;-58
2022/12/31 07:04:18;;;;;;;16.40;8.63;;;;;;;19.84;54.67;102384.94;5016541;28;20046;-58
2022/12/31 07:06:56;;;;;;;11.82;8.70;;;;;;;19.85;55.31;102392.03;5016489;28;20042;-58
2022/12/31 07:09:41;;;;;;;10.15;8.43;;;;;;;19.85;54.98;102401.00;5016447;28;20061;-57
2022/12/31 07:12:19;;;;;;;15.07;10.63;;;;;;;19.81;51.98;102412.00;5016290;28;20057;-58
2022/12/31 07:15:25;;;;;;;14.85;11.10;;;;;;;19.75;50.64;102419.50;5016303;28;20496;-58
2022/12/31 07:18:21;;;;;;;14.02;10.90;;;;;;;19.67;49.91;102420.94;5013946;28;20056;-59
2022/12/31 07:20:49;;;;;;;14.30;10.93;;;;;;;19.62;50.39;102425.75;4981680;28;20050;-57
2022/12/31 07:23:16;;;;;;;17.23;11.05;;;;;;;19.51;49.95;102421.84;5014003;28;20058;-57
2022/12/31 07:25:54;;;;;;;13.18;11.02;;;;;;;19.45;50.61;102424.94;4997598;28;20061;-58
2022/12/31 07:29:16;;;;;;;14.07;10.98;;;;;;;19.45;51.44;102424.94;5013861;28;20056;-58
2022/12/31 07:31:59;;;;;;;14.25;9.77;;;;;;;19.49;52.09;102426.47;4936240;29;20052;-58
2022/12/31 07:34:38;;;;;;;12.90;8.85;;;;;;;19.56;52.55;102426.09;4936265;29;20059;-58
2022/12/31 07:37:34;;;;;;;9.98;8.50;;;;;;;19.57;52.33;102430.50;4935903;29;20060;-59
2022/12/31 07:40:13;;;;;;;12.45;8.73;;;;;;;19.61;52.42;102434.75;4930550;29;20056;-58
2022/12/31 07:43:12;;;;;;;11.85;9.27;;;;;;;19.63;52.29;102441.75;4935608;29;20169;-58
2022/12/31 07:45:47;;;;;;;10.90;8.82;;;;;;;19.64;52.32;102442.63;4919300;29;20103;-58
2022/12/31 07:48:24;;;;;;;11.25;8.85;;;;;;;19.65;52.25;102442.53;4941032;29;20621;-58
2022/12/31 07:50:53;;;;;;;12.43;9.80;;;;;;;19.67;52.16;102451.38;4954515;29;20054;-58
2022/12/31 07:53:24;;;;;;;9.27;7.88;;;;;;;19.68;52.07;102447.72;4954636;29;20080;-58
2022/12/31 07:56:00;;;;;;;11.02;8.25;;;;;;;19.68;52.28;102458.44;4954458;29;20059;-58
2022/12/31 07:58:49;;;;;;;11.07;8.73;;;;;;;19.70;52.22;102459.25;4954582;29;20067;-58
2022/12/31 08:01:29;;;;;;;10.98;8.93;;;;;;;19.70;52.16;102466.44;4954572;29;20058;-58
2022/12/31 08:04:23;;;;;;;10.00;8.43;;;;;;;19.71;52.23;102476.22;4954524;29;20062;-58
2022/12/31 08:07:10;;;;;;;9.82;7.65;;;;;;;19.71;52.12;102470.84;5009738;28;20061;-58
2022/12/31 08:09:46;;;;;;;11.30;7.88;;;;;;;19.72;52.19;102470.75;5014594;28;20046;-58
2022/12/31 08:12:14;;;;;;;10.68;7.90;;;;;;;19.73;52.18;102468.94;5014536;28;20038;-58
2022/12/31 08:14:45;;;;;;;10.40;7.75;;;;;;;19.73;52.00;102477.88;5014774;28;20403;-58
2022/12/31 08:17:14;;;;;;;9.10;7.72;;;;;;;19.74;52.13;102481.41;5013480;28;20415;-58
2022/12/31 08:19:42;;;;;;;12.73;8.35;;;;;;;19.74;52.05;102484.09;5014447;28;20049;-58
2022/12/31 08:22:28;;;;;;;9.10;7.68;;;;;;;19.75;51.90;102496.56;5014473;28;20498;-58
2022/12/31 08:25:33;;;;;;;11.20;8.30;;;;;;;19.75;51.95;102492.06;5014486;28;20061;-58
2022/12/31 08:28:36;;;;;;;10.00;7.55;;;;;;;19.76;51.97;102493.78;5014488;28;20038;-58
2022/12/31 08:31:09;;;;;;;10.57;8.25;;;;;;;19.78;52.05;102499.06;5012357;28;20531;-58
2022/12/31 08:33:59;;;;;;;10.35;7.18;;;;;;;19.78;52.08;102495.53;5013131;28;20053;-58
2022/12/31 08:36:44;;;;;;;11.10;7.60;;;;;;;19.79;52.01;102494.56;5014323;28;20053;-58
2022/12/31 08:39:33;;;;;;;11.60;7.80;;;;;;;19.78;51.89;102496.41;5012696;28;20519;-58
2022/12/31 08:42:03;;;;;;;12.27;7.30;;;;;;;19.79;51.97;102491.88;5012868;28;20057;-58
2022/12/31 08:45:11;;;;;;;9.60;7.85;;;;;;;19.80;51.82;102505.22;5014136;28;20400;-58
2022/12/31 08:47:52;;;;;;;8.25;6.80;;;;;;;19.80;51.98;102499.84;5014035;28;20042;-59
2022/12/31 08:50:26;;;;;;;8.98;6.90;;;;;;;19.81;51.88;102506.06;5012702;28;20058;-58
2022/12/31 08:52:54;;;;;;;9.40;7.28;;;;;;;19.81;51.76;102509.66;5013850;28;20050;-58
2022/12/31 08:55:22;;;;;;;9.23;6.60;;;;;;;19.82;51.99;102510.50;5013895;28;20503;-58
2022/12/31 08:58:16;;;;;;;8.82;6.93;;;;;;;19.82;51.99;102514.06;5013858;28;20049;-58
2022/12/31 09:00:45;;;;;;;8.52;6.55;;;;;;;19.82;51.88;102513.19;5013989;28;20381;-58
2022/12/31 09:03:43;;;;;;;8.25;7.07;;;;;;;19.83;51.91;102514.91;5013895;28;20044;-58
2022/12/31 09:06:32;;;;;;;7.63;6.53;;;;;;;19.83;51.83;102517.59;5012329;28;20050;-58
2022/12/31 09:09:09;;;;;;;8.60;7.20;;;;;;;19.84;51.63;102519.31;5012374;28;20412;-58
2022/12/31 09:11:45;;;;;;;8.32;6.75;;;;;;;19.84;51.89;102533.63;5012497;28;20053;-58
2022/12/31 09:14:34;;;;;;;8.15;6.70;;;;;;;19.85;51.85;102539.84;5013671;28;20042;-58
2022/12/31 09:17:31;;;;;;;7.90;6.80;;;;;;;19.85;51.60;102539.84;5013671;28;20400;-58
2022/12/31 09:19:58;;;;;;;7.45;6.28;;;;;;;19.85;51.45;102542.53;5013472;28;20053;-58
2022/12/31 09:22:26;;;;;;;8.68;6.45;;;;;;;19.86;51.79;102541.63;5013419;28;20045;-58
2022/12/31 09:24:53;;;;;;;7.88;6.18;;;;;;;19.86;51.70;102545.16;5013503;28;20046;-58
2022/12/31 09:27:27;;;;;;;7.90;6.53;;;;;;;19.88;51.47;102545.06;5013507;28;20057;-58
2022/12/31 09:30:15;;;;;;;9.05;6.65;;;;;;;19.87;51.61;102552.25;5013852;28;20057;-59
2022/12/31 09:33:06;;;;;;;9.02;6.63;;;;;;;19.88;51.76;102550.44;5013284;28;20042;-59
2022/12/31 09:35:55;;;;;;;7.82;6.35;;;;;;;19.88;51.70;102547.75;5013287;28;20492;-58
2022/12/31 09:38:34;;;;;;;8.40;6.35;;;;;;;19.88;51.62;102547.75;5013233;28;20404;-58
2022/12/31 09:41:31;;;;;;;7.47;6.15;;;;;;;19.88;51.63;102547.75;5013038;28;20060;-59
2022/12/31 09:44:23;;;;;;;7.88;6.20;;;;;;;19.88;51.72;102542.38;5013229;28;20492;-58
2022/12/31 09:47:18;;;;;;;7.40;6.28;;;;;;;19.87;51.68;102535.28;5013184;28;20049;-58
2022/12/31 09:50:07;;;;;;;8.18;5.97;;;;;;;19.87;51.38;102529.91;5013019;28;20041;-58
2022/12/31 09:52:54;;;;;;;7.25;6.40;;;;;;;19.87;51.38;102530.75;5013637;28;20061;-58
2022/12/31 09:55:52;;;;;;;7.97;6.40;;;;;;;19.87;51.46;102528.06;5013184;28;20053;-58
2022/12/31 09:58:51;;;;;;;7.78;6.65;;;;;;;19.88;51.43;102527.09;5013157;28;20050;-58
2022/12/31 10:01:36;;;;;;;7.07;6.05;;;;;;;19.88;51.46;102524.41;5013137;28;20053;-58
2022/12/31 10:04:22;;;;;;;7.90;6.03;;;;;;;19.89;51.18;102525.28;5012946;28;20042;-58
2022/12/31 10:07:12;;;;;;;8.00;6.30;;;;;;;19.90;51.47;102518.97;5011876;28;20049;-58
2022/12/31 10:09:57;;;;;;;7.78;6.32;;;;;;;19.89;51.35;102518.09;5013198;28;20050;-58
2022/12/31 10:13:02;;;;;;;9.02;6.50;;;;;;;19.89;51.47;102519.91;5013047;28;20049;-58
2022/12/31 10:16:14;;;;;;;7.38;5.68;;;;;;;19.90;51.59;102519.81;5013535;28;20510;-59
2022/12/31 10:19:32;;;;;;;10.25;6.93;;;;;;;19.92;51.55;102511.66;5013376;28;20050;-59
2022/12/31 10:22:14;;;;;;;8.13;5.95;;;;;;;19.92;51.89;102503.59;5011947;28;20138;-58
2022/12/31 10:24:51;;;;;;;9.68;6.85;;;;;;;19.94;51.72;102496.31;5013258;28;20057;-58
2022/12/31 10:27:38;;;;;;;8.02;6.25;;;;;;;19.94;51.58;102499.00;5013754;28;20054;-59
2022/12/31 10:30:16;;;;;;;8.90;6.07;;;;;;;19.91;51.55;102494.66;5013580;28;20053;-58
2022/12/31 10:32:53;;;;;;;11.18;6.72;;;;;;;19.92;51.75;102493.69;5013407;28;20046;-58
2022/12/31 10:35:52;;;;;;;9.50;5.97;;;;;;;19.95;52.15;102506.09;5012938;28;20054;-59
2022/12/31 10:38:38;;;;;;;8.68;6.75;;;;;;;19.97;51.87;102496.09;5013482;28;20054;-66
2022/12/31 10:41:26;;;;;;;11.57;6.07;;;;;;;19.99;52.21;102500.44;5012893;28;20057;-66
2022/12/31 10:44:06;;;;;;;9.98;6.13;;;;;;;20.03;52.08;102505.63;5013228;28;20050;-67
2022/12/31 10:46:54;;;;;;;11.98;6.38;;;;;;;20.02;51.67;102502.06;5012956;28;20054;-63
2022/12/31 10:50:11;;;;;;;9.88;6.60;;;;;;;20.05;52.16;102504.53;5013425;28;20495;-64
2022/12/31 10:53:23;;;;;;;8.77;6.78;;;;;;;20.05;51.97;102490.25;5027904;28;20080;-62
2022/12/31 10:56:14;;;;;;;9.45;6.68;;;;;;;20.03;51.89;102490.34;5014062;28;20053;-62
2022/12/31 10:59:20;;;;;;;18.70;12.32;;;;;;;20.00;49.13;102482.47;5014296;28;20053;-65
2022/12/31 11:02:14;;;;;;;15.85;13.45;;;;;;;19.94;48.78;102489.09;5034694;28;20060;-63
2022/12/31 11:05:03;;;;;;;14.50;10.30;;;;;;;19.91;50.49;102491.13;5035848;28;20546;-63
2022/12/31 11:07:34;;;;;;;15.00;9.07;;;;;;;19.92;50.77;102499.06;5035115;28;20483;-62
2022/12/31 11:10:28;;;;;;;11.25;8.85;;;;;;;19.93;51.29;102491.88;5035433;28;20483;-61
2022/12/31 11:13:33;;;;;;;10.88;9.27;;;;;;;19.95;50.89;102489.97;5037890;28;20050;-62
2022/12/31 11:16:19;;;;;;;12.00;8.10;;;;;;;19.96;51.33;102491.69;5035002;28;20045;-65
2022/12/31 11:18:56;;;;;;;17.45;13.52;;;;;;;19.93;48.37;102489.19;5035507;28;20045;-64
2022/12/31 11:21:29;;;;;;;16.88;13.63;;;;;;;19.89;48.85;102479.59;5035959;28;20053;-64
2022/12/31 11:24:17;;;;;;;16.15;9.50;;;;;;;19.89;50.85;102480.47;5016994;28;20034;-61
2022/12/31 11:27:13;;;;;;;13.90;9.35;;;;;;;19.91;51.14;102486.59;5015433;28;20368;-62
2022/12/31 11:30:03;;;;;;;9.80;7.70;;;;;;;19.94;51.37;102477.50;5013120;28;20105;-63
2022/12/31 11:32:47;;;;;;;11.93;8.57;;;;;;;19.96;51.25;102476.41;5016027;28;20046;-64
2022/12/31 11:35:17;;;;;;;11.70;8.27;;;;;;;19.98;51.07;102473.66;5019242;28;20042;-63
2022/12/31 11:37:57;;;;;;;12.63;8.77;;;;;;;19.99;51.12;102468.16;5034170;28;20053;-63
2022/12/31 11:40:27;;;;;;;14.13;7.72;;;;;;;20.00;51.28;102477.09;5031080;28;20058;-63
2022/12/31 11:42:59;;;;;;;11.77;7.53;;;;;;;20.02;51.62;102472.50;5035126;28;20380;-64
2022/12/31 11:45:56;;;;;;;9.48;7.13;;;;;;;20.02;51.52;102472.50;5035092;28;20053;-64
2022/12/31 11:48:46;;;;;;;9.40;7.70;;;;;;;20.03;51.63;102471.53;5035046;28;20054;-63
2022/12/31 11:51:49;;;;;;;9.70;7.68;;;;;;;20.05;51.59;102483.03;5034951;28;20049;-63
2022/12/31 11:54:25;;;;;;;13.25;8.50;;;;;;;20.05;51.46;102477.66;5034894;28;20049;-64
2022/12/31 11:57:22;;;;;;;11.10;7.53;;;;;;;20.06;51.35;102467.78;5031261;28;20056;-64
2022/12/31 12:00:02;;;;;;;9.25;8.27;;;;;;;20.05;51.13;102466.91;5034564;28;20049;-64
2022/12/31 12:02:44;;;;;;;10.35;8.27;;;;;;;20.05;51.17;102466.91;5041505;28;20061;-64
2022/12/31 12:05:19;;;;;;;11.70;8.30;;;;;;;20.04;51.11;102459.81;5034957;28;20056;-64